Liberta — V2CM3 — position and weather

sailwx.info

Track history (hours):
 
Tides and Currents Weather Stations Pressure Air Temp Water Temp Dewpoint Dewpoint Depression Visibility Wind Speed Wind Dir Waves Ship Positions

Liberta

Last reported at 2015-Mar-23 21:33 UTC. Time now 2015-Mar-28 23:50 UTC.
Position N 35°58' W 005°35'.

Length 138 m; draft 7.4 m.

Type: Cargo ship. MMSI: 305043000.

Date/timePositionNaut miles runAvg speedWind from/ knotsBaromVisibWave heightAir tempDewpointWater temp
2015-Mar-23 21:33N 35°58' W 005°35'7 6.9
2015-Mar-23 20:33N 36°01' W 005°27'8 7.3
2015-Mar-23 19:30N 36°07' W 005°21'0 0.0
2015-Mar-23 18:30N 36°07' W 005°21'0 0.0
2015-Mar-23 17:24N 36°07' W 005°21'0 0.0
2015-Mar-23 16:24N 36°07' W 005°21'0 0.1
2015-Mar-23 15:30N 36°07' W 005°21'0 0.0
2015-Mar-23 14:24N 36°07' W 005°21'0 0.0
2015-Mar-23 13:33N 36°07' W 005°21'0 0.1
2015-Mar-23 12:18N 36°07' W 005°21'0 0.1
2015-Mar-23 11:12N 36°07' W 005°21'1 1.5
2015-Mar-23 10:33N 36°06' W 005°22'3 2.5
2015-Mar-23 09:34N 36°05' W 005°19'4 3.9
2015-Mar-23 08:33N 36°07' W 005°15'  
2015-Mar-15 20:08N 41°14' E 029°08'4 7.5
2015-Mar-15 19:33N 41°19' E 029°08'8 5.8
2015-Mar-15 18:11N 41°20' E 029°18'1 1.1
2015-Mar-15 17:05N 41°21' E 029°19'1 1.2
2015-Mar-15 16:08N 41°22' E 029°19'1 1.3
2015-Mar-15 15:33N 41°23' E 029°19'2 1.4
2015-Mar-15 14:16N 41°25' E 029°19'1 1.5
2015-Mar-15 13:30N 41°26' E 029°20'2 1.6
2015-Mar-15 12:04N 41°28' E 029°20'1 2.1
2015-Mar-15 11:23N 41°30' E 029°21'8 9.8
2015-Mar-15 10:33N 41°31' E 029°32'38911.0
2015-Mar-13 23:04N 44°27' E 037°26'1010.8
2015-Mar-13 22:08N 44°31' E 037°39'  
Track history (hours):
 
Tides and Currents Weather Stations Pressure Air Temp Water Temp Dewpoint Dewpoint Depression Visibility Wind Speed Wind Dir Waves Ship Positions

Liberta

Last reported at 2015-Mar-23 21:33 UTC. Time now 2015-Mar-28 23:50 UTC.
Position N 35°58' W 005°35'.

Length 138 m; draft 7.4 m.

Type: Cargo ship. MMSI: 305043000.

Date/timePositionNaut miles runAvg speedWind from/ knotsBaromVisibWave heightAir tempDewpointWater temp
2015-Mar-23 21:33N 35°58' W 005°35'7 6.9
2015-Mar-23 20:33N 36°01' W 005°27'8 7.3
2015-Mar-23 19:30N 36°07' W 005°21'0 0.0
2015-Mar-23 18:30N 36°07' W 005°21'0 0.0
2015-Mar-23 17:24N 36°07' W 005°21'0 0.0
2015-Mar-23 16:24N 36°07' W 005°21'0 0.1
2015-Mar-23 15:30N 36°07' W 005°21'0 0.0
2015-Mar-23 14:24N 36°07' W 005°21'0 0.0
2015-Mar-23 13:33N 36°07' W 005°21'0 0.1
2015-Mar-23 12:18N 36°07' W 005°21'0 0.1
2015-Mar-23 11:12N 36°07' W 005°21'1 1.5
2015-Mar-23 10:33N 36°06' W 005°22'3 2.5
2015-Mar-23 09:34N 36°05' W 005°19'4 3.9
2015-Mar-23 08:33N 36°07' W 005°15'  
2015-Mar-15 20:08N 41°14' E 029°08'4 7.5
2015-Mar-15 19:33N 41°19' E 029°08'8 5.8
2015-Mar-15 18:11N 41°20' E 029°18'1 1.1
2015-Mar-15 17:05N 41°21' E 029°19'1 1.2
2015-Mar-15 16:08N 41°22' E 029°19'1 1.3
2015-Mar-15 15:33N 41°23' E 029°19'2 1.4
2015-Mar-15 14:16N 41°25' E 029°19'1 1.5
2015-Mar-15 13:30N 41°26' E 029°20'2 1.6
2015-Mar-15 12:04N 41°28' E 029°20'1 2.1
2015-Mar-15 11:23N 41°30' E 029°21'8 9.8
2015-Mar-15 10:33N 41°31' E 029°32'38911.0
2015-Mar-13 23:04N 44°27' E 037°26'1010.8
2015-Mar-13 22:08N 44°31' E 037°39'  

Dump ship's entire track history